createdAt,value
2022-12-27T00:00:58.598Z,0.70
2022-12-27T00:03:26.914Z,0.70
2022-12-27T00:05:55.057Z,0.70
2022-12-27T00:08:23.305Z,0.70
2022-12-27T00:10:53.067Z,0.70
2022-12-27T00:13:21.213Z,0.70
2022-12-27T00:15:49.357Z,0.60
2022-12-27T00:18:17.668Z,0.60
2022-12-27T00:20:45.925Z,0.60
2022-12-27T00:23:14.099Z,0.50
2022-12-27T00:25:42.424Z,0.50
2022-12-27T00:28:12.364Z,0.60
2022-12-27T00:30:40.705Z,0.60
2022-12-27T00:33:08.924Z,0.60
2022-12-27T00:35:39.527Z,0.60
2022-12-27T00:38:08.128Z,0.60
2022-12-27T00:40:36.403Z,0.50
2022-12-27T00:43:04.583Z,0.50
2022-12-27T00:45:34.319Z,0.50
2022-12-27T00:48:02.648Z,0.50
2022-12-27T00:50:32.183Z,0.40
2022-12-27T00:53:00.426Z,0.40
2022-12-27T00:55:28.649Z,0.40
2022-12-27T00:57:56.958Z,0.40
2022-12-27T01:00:25.101Z,0.40
2022-12-27T01:02:54.802Z,0.40
2022-12-27T01:05:23.308Z,0.40
2022-12-27T01:07:51.720Z,0.40
2022-12-27T01:10:20.073Z,0.50
2022-12-27T01:12:48.235Z,0.40
2022-12-27T01:15:19.393Z,0.50
2022-12-27T01:17:47.593Z,0.40
2022-12-27T01:20:17.343Z,0.40
2022-12-27T01:22:45.430Z,0.50
2022-12-27T01:25:13.596Z,0.50
2022-12-27T01:27:41.910Z,0.50
2022-12-27T01:30:10.798Z,0.50
2022-12-27T01:32:41.953Z,0.50
2022-12-27T01:35:10.623Z,0.40
2022-12-27T01:37:40.324Z,0.40
2022-12-27T01:40:09.436Z,0.30
2022-12-27T01:42:55.811Z,0.30
2022-12-27T01:45:24.988Z,0.30
2022-12-27T01:47:58.661Z,0.40
2022-12-27T01:50:29.789Z,0.30
2022-12-27T01:53:02.304Z,0.30
2022-12-27T01:55:32.736Z,0.30
2022-12-27T01:58:04.477Z,0.30
2022-12-27T02:00:32.867Z,0.30
2022-12-27T02:03:02.870Z,0.30
2022-12-27T02:05:31.443Z,0.30
2022-12-27T02:08:04.559Z,0.30
2022-12-27T02:10:35.041Z,0.30
2022-12-27T02:13:04.561Z,0.30
2022-12-27T02:15:32.982Z,0.30
2022-12-27T02:18:01.714Z,0.30
2022-12-27T02:20:33.392Z,0.30
2022-12-27T02:23:46.016Z,0.30
2022-12-27T02:26:31.834Z,0.30
2022-12-27T02:29:16.190Z,0.30
2022-12-27T02:31:48.497Z,0.30
2022-12-27T02:34:19.482Z,0.30
2022-12-27T02:36:48.229Z,0.30
2022-12-27T02:39:17.191Z,0.30
2022-12-27T02:42:03.704Z,0.30
2022-12-27T02:44:50.733Z,0.30
2022-12-27T02:47:37.657Z,0.30
2022-12-27T02:50:23.740Z,0.30
2022-12-27T02:53:09.524Z,0.30
2022-12-27T02:56:12.419Z,0.30
2022-12-27T02:58:45.874Z,0.30
2022-12-27T03:01:36.831Z,0.30
2022-12-27T03:04:15.143Z,0.30
2022-12-27T03:06:53.485Z,0.20
2022-12-27T03:09:59.575Z,0.20
2022-12-27T03:12:52.436Z,0.30
2022-12-27T03:15:45.243Z,0.30
2022-12-27T03:18:18.512Z,0.30
2022-12-27T03:21:05.447Z,0.30
2022-12-27T03:23:52.397Z,0.30
2022-12-27T03:26:20.931Z,0.30
2022-12-27T03:29:07.161Z,0.30
2022-12-27T03:31:55.059Z,0.30
2022-12-27T03:34:33.044Z,0.30
2022-12-27T03:37:19.527Z,0.30
2022-12-27T03:39:51.164Z,0.30
2022-12-27T03:42:38.678Z,0.30
2022-12-27T03:45:07.319Z,0.30
2022-12-27T03:47:38.086Z,0.30
2022-12-27T03:50:09.734Z,0.30
2022-12-27T03:52:41.753Z,0.30
2022-12-27T03:55:10.439Z,0.30
2022-12-27T03:57:39.048Z,0.30
2022-12-27T04:00:08.013Z,0.30
2022-12-27T04:02:36.424Z,0.30
2022-12-27T04:05:04.851Z,0.30
2022-12-27T04:07:34.568Z,0.30
2022-12-27T04:10:20.201Z,0.30
2022-12-27T04:13:05.987Z,0.30
2022-12-27T04:15:51.629Z,0.30
2022-12-27T04:18:37.476Z,0.30
2022-12-27T04:21:23.516Z,0.30
2022-12-27T04:24:10.374Z,0.30
2022-12-27T04:26:56.247Z,0.30
2022-12-27T04:29:41.922Z,0.30
2022-12-27T04:32:27.624Z,0.30
2022-12-27T04:34:55.896Z,0.30
2022-12-27T04:37:24.062Z,0.30
2022-12-27T04:40:07.573Z,0.30
2022-12-27T04:42:52.323Z,0.30
2022-12-27T04:45:38.047Z,0.30
2022-12-27T04:48:23.792Z,0.30
2022-12-27T04:51:08.657Z,0.30
2022-12-27T04:53:54.542Z,0.30
2022-12-27T04:56:24.409Z,0.30
2022-12-27T04:59:06.377Z,0.20
2022-12-27T05:01:52.094Z,0.20
2022-12-27T05:04:20.530Z,0.30
2022-12-27T05:06:48.738Z,0.30
2022-12-27T05:09:34.175Z,0.20
2022-12-27T05:12:20.955Z,0.20
2022-12-27T05:14:51.693Z,0.30
2022-12-27T05:17:19.981Z,0.30
2022-12-27T05:19:48.189Z,0.30
2022-12-27T05:22:34.021Z,0.30
2022-12-27T05:25:19.844Z,0.30
2022-12-27T05:27:49.534Z,0.20
2022-12-27T05:30:17.746Z,0.30
2022-12-27T05:32:46.050Z,0.30
2022-12-27T05:35:14.176Z,0.30
2022-12-27T05:37:42.366Z,0.20
2022-12-27T05:40:11.607Z,0.20
2022-12-27T05:42:39.751Z,0.20
2022-12-27T05:45:10.021Z,0.20
2022-12-27T05:47:38.158Z,0.20
2022-12-27T05:50:09.592Z,0.20
2022-12-27T05:52:41.164Z,0.20
2022-12-27T05:55:10.372Z,0.20
2022-12-27T05:57:38.659Z,0.20
2022-12-27T06:00:07.424Z,0.20
2022-12-27T06:02:39.694Z,0.20
2022-12-27T06:05:08.412Z,0.20
2022-12-27T06:07:37.140Z,0.20
2022-12-27T06:10:05.756Z,0.20
2022-12-27T06:12:33.877Z,0.20
2022-12-27T06:15:02.032Z,0.30
2022-12-27T06:17:30.370Z,0.20
2022-12-27T06:20:02.555Z,0.20
2022-12-27T06:22:30.703Z,0.20
2022-12-27T06:24:58.931Z,0.20
2022-12-27T06:27:27.332Z,0.30
2022-12-27T06:29:55.463Z,0.30
2022-12-27T06:32:23.619Z,0.30
2022-12-27T06:34:51.916Z,0.30
2022-12-27T06:37:21.482Z,0.30
2022-12-27T06:39:49.640Z,0.30
2022-12-27T06:42:18.011Z,0.30
2022-12-27T06:44:46.226Z,0.30
2022-12-27T06:47:14.409Z,0.30
2022-12-27T06:49:42.699Z,0.30
2022-12-27T06:52:10.878Z,0.30
2022-12-27T06:54:41.529Z,0.30
2022-12-27T06:57:09.756Z,0.30
2022-12-27T06:59:37.934Z,0.30
2022-12-27T07:02:06.422Z,0.30
2022-12-27T07:04:34.643Z,0.40
2022-12-27T07:07:02.766Z,0.30
2022-12-27T07:09:31.129Z,0.40
2022-12-27T07:12:00.791Z,0.40
2022-12-27T07:14:28.946Z,0.40
2022-12-27T07:16:57.314Z,0.40
2022-12-27T07:19:25.667Z,0.40
2022-12-27T07:21:53.787Z,0.40
2022-12-27T07:24:21.991Z,0.40
2022-12-27T07:26:50.152Z,0.40
2022-12-27T07:29:19.790Z,0.40
2022-12-27T07:31:47.929Z,0.40
2022-12-27T07:34:16.119Z,0.40
2022-12-27T07:36:44.378Z,0.50
2022-12-27T07:39:12.757Z,0.50
2022-12-27T07:41:40.854Z,0.50
2022-12-27T07:44:09.136Z,0.40
2022-12-27T07:46:38.882Z,0.50
2022-12-27T07:49:09.960Z,0.40
2022-12-27T07:51:42.267Z,0.50
2022-12-27T07:54:10.466Z,0.50
2022-12-27T07:56:38.588Z,0.50
2022-12-27T07:59:06.775Z,0.50
2022-12-27T08:02:02.957Z,0.50
2022-12-27T08:04:33.729Z,0.50
2022-12-27T08:07:03.626Z,0.50
2022-12-27T08:09:33.293Z,0.50
2022-12-27T08:12:01.458Z,0.50
2022-12-27T08:14:30.733Z,0.50
2022-12-27T08:17:00.489Z,0.50
2022-12-27T08:19:28.617Z,0.50
2022-12-27T08:21:58.230Z,0.50
2022-12-27T08:24:26.441Z,0.50
2022-12-27T08:26:56.820Z,0.50
2022-12-27T08:29:25.020Z,0.50
2022-12-27T08:31:53.332Z,0.50
2022-12-27T08:34:21.550Z,0.50
2022-12-27T08:36:55.932Z,0.50
2022-12-27T08:39:26.065Z,0.60
2022-12-27T08:41:54.368Z,0.50
2022-12-27T08:44:22.783Z,0.50
2022-12-27T08:46:53.479Z,0.50
2022-12-27T08:49:21.659Z,0.50
2022-12-27T08:51:49.787Z,0.50
2022-12-27T08:54:18.163Z,0.50
2022-12-27T08:56:48.050Z,0.50
2022-12-27T08:59:16.216Z,0.50
2022-12-27T09:01:44.387Z,0.50
2022-12-27T09:04:15.275Z,0.50
2022-12-27T09:06:43.427Z,0.50
2022-12-27T09:09:11.559Z,0.60
2022-12-27T09:11:39.854Z,0.60
2022-12-27T09:14:09.410Z,0.50
2022-12-27T09:16:37.560Z,0.50
2022-12-27T09:19:06.282Z,0.50
2022-12-27T09:21:35.208Z,0.60
2022-12-27T09:24:03.649Z,0.50
2022-12-27T09:26:32.014Z,0.50
2022-12-27T09:29:00.662Z,0.50
2022-12-27T09:31:30.716Z,0.50
2022-12-27T09:33:59.519Z,0.60
2022-12-27T09:36:28.714Z,0.60
2022-12-27T09:38:57.578Z,0.60
2022-12-27T09:42:33.860Z,0.60
2022-12-27T09:44:24.335Z,0.60
2022-12-27T09:46:56.213Z,0.60
2022-12-27T09:49:28.442Z,0.60
2022-12-27T09:51:59.073Z,0.60
2022-12-27T09:54:29.279Z,0.60
2022-12-27T09:59:49.163Z,0.60
2022-12-27T10:02:22.597Z,0.60
2022-12-27T10:05:22.388Z,0.70
2022-12-27T10:07:45.113Z,0.70
2022-12-27T10:10:18.670Z,0.70
2022-12-27T10:13:03.625Z,0.70
2022-12-27T10:15:34.938Z,0.60
2022-12-27T10:18:11.384Z,0.70
2022-12-27T10:20:48.392Z,0.70
2022-12-27T10:23:18.604Z,0.70
2022-12-27T10:25:47.790Z,0.70
2022-12-27T10:28:17.726Z,0.70
2022-12-27T10:30:46.401Z,0.70
2022-12-27T10:33:20.599Z,0.70
2022-12-27T10:35:49.027Z,0.70
2022-12-27T10:38:17.278Z,0.70
2022-12-27T10:40:51.896Z,0.70
2022-12-27T10:43:21.345Z,0.70
2022-12-27T10:45:49.803Z,0.70
2022-12-27T10:48:20.125Z,0.70
2022-12-27T10:50:50.175Z,0.70
2022-12-27T10:53:31.204Z,0.70
2022-12-27T10:56:07.663Z,0.70
2022-12-27T10:58:39.223Z,0.70
2022-12-27T11:01:07.917Z,0.70
2022-12-27T11:03:37.530Z,0.60
2022-12-27T11:06:07.324Z,0.60
2022-12-27T11:08:35.584Z,0.60
2022-12-27T11:11:13.967Z,0.60
2022-12-27T11:13:43.342Z,0.60
2022-12-27T11:16:15.803Z,0.50
2022-12-27T11:18:48.176Z,0.60
2022-12-27T11:21:25.666Z,0.50
2022-12-27T11:23:57.555Z,0.50
2022-12-27T11:26:26.611Z,0.50
2022-12-27T11:28:55.160Z,0.60
2022-12-27T11:31:31.474Z,0.50
2022-12-27T11:34:02.548Z,0.50
2022-12-27T11:36:32.810Z,0.60
2022-12-27T11:39:03.952Z,0.50
2022-12-27T11:41:44.326Z,0.60
2022-12-27T11:44:16.470Z,0.60
2022-12-27T11:46:47.055Z,0.60
2022-12-27T11:49:21.236Z,0.60
2022-12-27T11:52:00.422Z,0.60
2022-12-27T11:54:50.865Z,0.60
2022-12-27T11:57:24.609Z,0.60
2022-12-27T12:00:00.270Z,0.60
2022-12-27T12:02:32.286Z,0.50
2022-12-27T12:05:28.619Z,0.50
2022-12-27T12:08:06.787Z,0.50
2022-12-27T12:10:43.367Z,0.60
2022-12-27T12:13:19.901Z,0.50
2022-12-27T12:15:59.762Z,0.50
2022-12-27T12:18:38.995Z,0.50
2022-12-27T12:21:24.676Z,0.50
2022-12-27T12:24:11.492Z,0.50
2022-12-27T12:26:45.764Z,0.50
2022-12-27T12:29:27.022Z,0.60
2022-12-27T12:32:03.019Z,0.50
2022-12-27T12:34:43.901Z,0.50
2022-12-27T12:37:23.591Z,0.40
2022-12-27T12:39:59.970Z,0.40
2022-12-27T12:42:33.040Z,0.40
2022-12-27T12:45:25.362Z,0.50
2022-12-27T12:48:01.464Z,0.40
2022-12-27T12:50:34.919Z,0.40
2022-12-27T12:53:12.743Z,0.50
2022-12-27T12:55:48.970Z,0.40
2022-12-27T12:58:34.668Z,0.40
2022-12-27T13:01:14.629Z,0.50
2022-12-27T13:03:56.112Z,0.50
2022-12-27T13:06:37.963Z,0.50
2022-12-27T13:09:13.049Z,0.50
2022-12-27T13:11:49.988Z,0.50
2022-12-27T13:14:28.869Z,0.50
2022-12-27T13:17:00.631Z,0.50
2022-12-27T13:19:36.480Z,0.50
2022-12-27T13:22:09.768Z,0.50
2022-12-27T13:24:51.801Z,0.50
2022-12-27T13:27:26.964Z,0.50
2022-12-27T13:30:06.694Z,0.50
2022-12-27T13:32:45.830Z,0.50
2022-12-27T13:35:21.495Z,0.40
2022-12-27T13:37:54.494Z,0.50
2022-12-27T13:40:47.183Z,0.50
2022-12-27T13:43:25.497Z,0.50
2022-12-27T13:46:01.946Z,0.50
2022-12-27T13:48:53.442Z,0.50
2022-12-27T13:51:35.890Z,0.50
2022-12-27T13:54:24.025Z,0.50
2022-12-27T13:56:56.936Z,0.50
2022-12-27T13:59:42.754Z,0.50
2022-12-27T14:02:21.987Z,0.50
2022-12-27T14:05:02.373Z,0.50
2022-12-27T14:07:39.910Z,0.50
2022-12-27T14:10:12.483Z,0.40
2022-12-27T14:12:55.553Z,0.40
2022-12-27T14:15:25.993Z,0.40
2022-12-27T14:17:57.770Z,0.30
2022-12-27T14:20:36.219Z,0.30
2022-12-27T14:23:12.692Z,0.30
2022-12-27T14:26:00.803Z,0.30
2022-12-27T14:28:43.746Z,0.30
2022-12-27T14:31:26.777Z,0.20
2022-12-27T14:34:02.468Z,0.20
2022-12-27T14:36:48.480Z,0.20
2022-12-27T14:39:35.676Z,0.20
2022-12-27T14:42:21.337Z,0.20
2022-12-27T14:45:09.300Z,0.20
2022-12-27T14:47:49.938Z,0.20
2022-12-27T14:50:44.994Z,0.20
2022-12-27T14:53:54.779Z,0.10
2022-12-27T14:56:27.471Z,0.10
2022-12-27T14:59:11.774Z,0.10
2022-12-27T15:01:52.103Z,0.00
2022-12-27T15:04:35.238Z,0.00
2022-12-27T15:07:21.223Z,0.00
2022-12-27T15:09:53.220Z,0.00
2022-12-27T15:12:26.486Z,0.00
2022-12-27T15:15:18.912Z,0.00
2022-12-27T15:18:02.805Z,0.00
2022-12-27T15:20:38.182Z,0.10
2022-12-27T15:23:16.584Z,0.00
2022-12-27T15:25:52.621Z,0.00
2022-12-27T15:28:26.273Z,0.10
2022-12-27T15:30:56.543Z,0.00
2022-12-27T15:33:31.637Z,0.00
2022-12-27T15:36:03.905Z,0.00
2022-12-27T15:38:53.472Z,0.00
2022-12-27T15:41:31.691Z,0.00
2022-12-27T15:44:09.091Z,0.00
2022-12-27T15:46:58.557Z,-0.10
2022-12-27T15:49:44.129Z,-0.10
2022-12-27T15:52:14.780Z,0.00
2022-12-27T15:54:59.471Z,0.00
2022-12-27T15:57:38.063Z,0.00
2022-12-27T16:00:16.776Z,0.00
2022-12-27T16:02:55.300Z,-0.10
2022-12-27T16:05:53.467Z,-0.10
2022-12-27T16:08:29.874Z,-0.10
2022-12-27T16:10:59.963Z,-0.20
2022-12-27T16:13:43.362Z,-0.30
2022-12-27T16:16:29.999Z,-0.30
2022-12-27T16:19:15.933Z,-0.30
2022-12-27T16:21:46.029Z,-0.30
2022-12-27T16:24:19.591Z,-0.40
2022-12-27T16:26:57.459Z,-0.50
2022-12-27T16:29:28.393Z,-0.40
2022-12-27T16:32:15.091Z,-0.50
2022-12-27T16:34:44.813Z,-0.40
2022-12-27T16:37:24.123Z,-0.50
2022-12-27T16:40:10.932Z,-0.60
2022-12-27T16:43:04.002Z,-0.50
2022-12-27T16:45:43.851Z,-0.60
2022-12-27T16:48:18.555Z,-0.60
2022-12-27T16:50:54.047Z,-0.60
2022-12-27T16:53:40.037Z,-0.60
2022-12-27T16:56:19.496Z,-0.70
2022-12-27T16:58:48.414Z,-0.70
2022-12-27T17:01:46.627Z,-0.70
2022-12-27T17:04:29.971Z,-0.70
2022-12-27T17:06:59.719Z,-0.70
2022-12-27T17:09:44.149Z,-0.80
2022-12-27T17:12:23.525Z,-0.70
2022-12-27T17:14:55.364Z,-0.70
2022-12-27T17:17:24.592Z,-0.70
2022-12-27T17:19:55.518Z,-0.70
2022-12-27T17:22:30.434Z,-0.70
2022-12-27T17:25:03.588Z,-0.70
2022-12-27T17:27:49.607Z,-0.80
2022-12-27T17:30:20.098Z,-0.80
2022-12-27T17:33:07.063Z,-0.80
2022-12-27T17:35:40.392Z,-0.80
2022-12-27T17:38:16.210Z,-0.80
2022-12-27T17:40:49.241Z,-0.80
2022-12-27T17:43:43.353Z,-0.80
2022-12-27T17:46:19.153Z,-0.70
2022-12-27T17:48:47.534Z,-0.80
2022-12-27T17:51:16.963Z,-0.80
2022-12-27T17:54:06.166Z,-0.80
2022-12-27T17:57:03.500Z,-0.80
2022-12-27T17:59:33.121Z,-0.70
2022-12-27T18:02:05.524Z,-0.80
2022-12-27T18:04:36.447Z,-0.80
2022-12-27T18:07:05.198Z,-0.70
2022-12-27T18:09:40.006Z,-0.80
2022-12-27T18:12:13.393Z,-0.80
2022-12-27T18:14:42.083Z,-0.80
2022-12-27T18:17:23.995Z,-0.80
2022-12-27T18:19:56.753Z,-0.80
2022-12-27T18:22:25.120Z,-0.90
2022-12-27T18:24:54.662Z,-0.80
2022-12-27T18:27:25.190Z,-0.80
2022-12-27T18:29:53.386Z,-0.80
2022-12-27T18:32:22.230Z,-0.90
2022-12-27T18:34:52.665Z,-0.90
2022-12-27T18:37:22.306Z,-0.90
2022-12-27T18:39:52.512Z,-0.90
2022-12-27T18:42:26.176Z,-0.90
2022-12-27T18:44:57.058Z,-0.90
2022-12-27T18:47:27.112Z,-0.90
2022-12-27T18:49:56.627Z,-0.80
2022-12-27T18:52:26.862Z,-0.90
2022-12-27T18:54:55.465Z,-0.90
2022-12-27T18:57:32.688Z,-0.90
2022-12-27T19:00:01.944Z,-0.90
2022-12-27T19:02:33.013Z,-0.90
2022-12-27T19:05:14.663Z,-0.90
2022-12-27T19:07:43.043Z,-0.90
2022-12-27T19:10:17.119Z,-1.00
2022-12-27T19:12:47.021Z,-1.00
2022-12-27T19:15:17.556Z,-0.90
2022-12-27T19:17:47.022Z,-0.90
2022-12-27T19:20:20.899Z,-1.00
2022-12-27T19:22:51.744Z,-0.90
2022-12-27T19:25:24.303Z,-1.00
2022-12-27T19:28:01.565Z,-1.00
2022-12-27T19:30:31.815Z,-0.90
2022-12-27T19:33:00.523Z,-1.00
2022-12-27T19:35:28.727Z,-1.00
2022-12-27T19:37:58.054Z,-1.10
2022-12-27T19:40:26.362Z,-1.10
2022-12-27T19:42:54.556Z,-1.10
2022-12-27T19:45:24.323Z,-1.10
2022-12-27T19:47:53.757Z,-1.10
2022-12-27T19:50:21.935Z,-1.10
2022-12-27T19:52:50.828Z,-1.10
2022-12-27T19:55:22.563Z,-1.10
2022-12-27T19:57:50.678Z,-1.10
2022-12-27T20:00:20.100Z,-1.20
2022-12-27T20:02:49.831Z,-1.10
2022-12-27T20:06:12.922Z,-1.20
2022-12-27T20:08:15.364Z,-1.10
2022-12-27T20:10:43.531Z,-1.10
2022-12-27T20:13:11.854Z,-1.10
2022-12-27T20:15:40.284Z,-1.10
2022-12-27T20:18:10.445Z,-1.10
2022-12-27T20:20:38.975Z,-1.10
2022-12-27T20:23:07.270Z,-1.00
2022-12-27T20:25:35.800Z,-1.10
2022-12-27T20:28:04.150Z,-1.00
2022-12-27T20:30:33.524Z,-1.10
2022-12-27T20:33:01.847Z,-1.10
2022-12-27T20:35:33.098Z,-1.10
2022-12-27T20:38:01.396Z,-1.00
2022-12-27T20:40:29.814Z,-1.00
2022-12-27T20:42:58.314Z,-1.10
2022-12-27T20:45:29.112Z,-1.00
2022-12-27T20:47:57.313Z,-1.10
2022-12-27T20:50:25.817Z,-1.10
2022-12-27T20:52:56.842Z,-1.10
2022-12-27T20:55:25.000Z,-1.10
2022-12-27T20:57:55.519Z,-1.10
2022-12-27T21:00:23.727Z,-1.10
2022-12-27T21:02:52.293Z,-1.00
2022-12-27T21:05:20.661Z,-1.00
2022-12-27T21:07:48.981Z,-1.10
2022-12-27T21:10:18.796Z,-1.10
2022-12-27T21:12:47.109Z,-1.10
2022-12-27T21:15:15.233Z,-1.10
2022-12-27T21:17:43.494Z,-1.10
2022-12-27T21:20:13.429Z,-1.10
2022-12-27T21:22:41.772Z,-1.00
2022-12-27T21:25:10.158Z,-1.00
2022-12-27T21:27:50.040Z,-1.00
2022-12-27T21:30:18.243Z,-1.00
2022-12-27T21:32:46.463Z,-1.00
2022-12-27T21:35:14.818Z,-0.90
2022-12-27T21:37:45.096Z,-1.00
2022-12-27T21:40:13.639Z,-1.00
2022-12-27T21:42:42.041Z,-1.00
2022-12-27T21:45:12.266Z,-1.10
2022-12-27T21:47:40.379Z,-1.10
2022-12-27T21:50:08.796Z,-1.10
2022-12-27T21:52:37.152Z,-1.10
2022-12-27T21:55:05.729Z,-1.20
2022-12-27T21:57:33.882Z,-1.20
2022-12-27T22:00:02.139Z,-1.20
2022-12-27T22:02:32.043Z,-1.20
2022-12-27T22:05:00.583Z,-1.20
2022-12-27T22:07:28.789Z,-1.30
2022-12-27T22:09:59.278Z,-1.30
2022-12-27T22:12:27.617Z,-1.30
2022-12-27T22:14:55.705Z,-1.40
2022-12-27T22:17:23.962Z,-1.40
2022-12-27T22:19:53.717Z,-1.40
2022-12-27T22:22:21.867Z,-1.50
2022-12-27T22:24:50.063Z,-1.50
2022-12-27T22:27:18.385Z,-1.50
2022-12-27T22:29:46.554Z,-1.50
2022-12-27T22:32:17.539Z,-1.50
2022-12-27T22:34:45.808Z,-1.50
2022-12-27T22:37:15.499Z,-1.50
2022-12-27T22:39:43.747Z,-1.50
2022-12-27T22:42:11.980Z,-1.50
2022-12-27T22:44:40.159Z,-1.50
2022-12-27T22:49:56.398Z,-1.60
2022-12-27T22:52:26.074Z,-1.50
2022-12-27T22:55:04.327Z,-1.60
2022-12-27T22:57:34.369Z,-1.60
2022-12-27T23:00:02.787Z,-1.60
2022-12-27T23:02:31.075Z,-1.60
2022-12-27T23:04:59.402Z,-1.50
2022-12-27T23:08:05.899Z,-1.50
2022-12-27T23:10:17.307Z,-1.50
2022-12-27T23:12:45.481Z,-1.50
2022-12-27T23:15:13.812Z,-1.60
2022-12-27T23:17:42.080Z,-1.60
2022-12-27T23:20:11.228Z,-1.60
2022-12-27T23:22:40.833Z,-1.60
2022-12-27T23:25:09.376Z,-1.60
2022-12-27T23:27:37.563Z,-1.60
2022-12-27T23:30:06.224Z,-1.70
2022-12-27T23:32:34.568Z,-1.70
2022-12-27T23:35:02.738Z,-1.70
2022-12-27T23:37:30.910Z,-1.70
2022-12-27T23:40:00.545Z,-1.80
2022-12-27T23:42:28.929Z,-1.80
2022-12-27T23:44:57.141Z,-1.90
2022-12-27T23:47:25.237Z,-1.90
2022-12-27T23:49:56.236Z,-1.90
2022-12-27T23:52:24.518Z,-1.90
2022-12-27T23:54:52.689Z,-1.90
2022-12-27T23:57:23.013Z,-2.00
2022-12-27T23:59:51.861Z,-2.00
